sensor_id;sensor_type;location;lat;lon;timestamp;pressure;altitude;pressure_sealevel;temperature;humidity
60373;BME280;46216;52.220;5.134;2023-02-03T00:01:44;102613.16;;;9.71;100.00
60373;BME280;46216;52.220;5.134;2023-02-03T00:04:10;102610.59;;;9.68;100.00
60373;BME280;46216;52.220;5.134;2023-02-03T00:06:35;102616.72;;;9.70;100.00
60373;BME280;46216;52.220;5.134;2023-02-03T00:09:01;102617.84;;;9.65;100.00
60373;BME280;46216;52.220;5.134;2023-02-03T00:11:30;102621.19;;;9.70;100.00
60373;BME280;46216;52.220;5.134;2023-02-03T00:13:55;102625.53;;;9.73;100.00
60373;BME280;46216;52.220;5.134;2023-02-03T00:16:20;102627.50;;;9.67;100.00
60373;BME280;46216;52.220;5.134;2023-02-03T00:18:46;102640.88;;;9.66;100.00
60373;BME280;46216;52.220;5.134;2023-02-03T00:21:11;102645.22;;;9.68;100.00
60373;BME280;46216;52.220;5.134;2023-02-03T00:23:38;102635.31;;;9.72;100.00
60373;BME280;46216;52.220;5.134;2023-02-03T00:26:09;102645.09;;;9.71;100.00
60373;BME280;46216;52.220;5.134;2023-02-03T00:28:34;102637.22;;;9.68;100.00
60373;BME280;46216;52.220;5.134;2023-02-03T00:31:01;102636.19;;;9.73;100.00
60373;BME280;46216;52.220;5.134;2023-02-03T00:33:26;102636.19;;;9.73;100.00
60373;BME280;46216;52.220;5.134;2023-02-03T00:35:51;102630.84;;;9.73;100.00
60373;BME280;46216;52.220;5.134;2023-02-03T00:38:17;102635.31;;;9.72;100.00
60373;BME280;46216;52.220;5.134;2023-02-03T00:40:42;102645.16;;;9.70;100.00
60373;BME280;46216;52.220;5.134;2023-02-03T00:43:07;102626.50;;;9.70;100.00
60373;BME280;46216;52.220;5.134;2023-02-03T00:45:33;102646.13;;;9.67;100.00
60373;BME280;46216;52.220;5.134;2023-02-03T00:47:58;102638.88;;;9.71;100.00
60373;BME280;46216;52.220;5.134;2023-02-03T00:50:23;102621.13;;;9.71;100.00
60373;BME280;46216;52.220;5.134;2023-02-03T00:52:49;102607.94;;;9.68;100.00
60373;BME280;46216;52.220;5.134;2023-02-03T00:55:14;102620.38;;;9.68;100.00
60373;BME280;46216;52.220;5.134;2023-02-03T00:57:39;102630.09;;;9.69;100.00
60373;BME280;46216;52.220;5.134;2023-02-03T01:00:05;102625.66;;;9.69;100.00
60373;BME280;46216;52.220;5.134;2023-02-03T01:02:31;102618.47;;;9.71;100.00
60373;BME280;46216;52.220;5.134;2023-02-03T01:04:56;102630.22;;;9.66;100.00
60373;BME280;46216;52.220;5.134;2023-02-03T01:07:21;102605.31;;;9.67;100.00
60373;BME280;46216;52.220;5.134;2023-02-03T01:09:47;102610.72;;;9.65;100.00
60373;BME280;46216;52.220;5.134;2023-02-03T01:12:12;102624.09;;;9.64;100.00
60373;BME280;46216;52.220;5.134;2023-02-03T01:14:37;102626.63;;;9.67;100.00
60373;BME280;46216;52.220;5.134;2023-02-03T01:17:03;102613.31;;;9.67;100.00
60373;BME280;46216;52.220;5.134;2023-02-03T01:19:28;102617.84;;;9.65;100.00
60373;BME280;46216;52.220;5.134;2023-02-03T01:21:54;102607.94;;;9.68;100.00
60373;BME280;46216;52.220;5.134;2023-02-03T01:24:19;102605.31;;;9.67;100.00
60373;BME280;46216;52.220;5.134;2023-02-03T01:26:44;102589.44;;;9.65;100.00
60373;BME280;46216;52.220;5.134;2023-02-03T01:29:10;102575.38;;;9.62;100.00
60373;BME280;46216;52.220;5.134;2023-02-03T01:31:39;102583.25;;;9.65;100.00
60373;BME280;46216;52.220;5.134;2023-02-03T01:34:10;102584.78;;;9.70;100.00
60373;BME280;46216;52.220;5.134;2023-02-03T01:36:36;102573.25;;;9.70;100.00
60373;BME280;46216;52.220;5.134;2023-02-03T01:39:02;102588.50;;;9.66;100.00
60373;BME280;46216;52.220;5.134;2023-02-03T01:41:31;102577.66;;;9.71;100.00
60373;BME280;46216;52.220;5.134;2023-02-03T01:43:58;102585.47;;;9.76;100.00
60373;BME280;46216;52.220;5.134;2023-02-03T01:46:28;102592.72;;;9.72;100.00
60373;BME280;46216;52.220;5.134;2023-02-03T01:49:02;102602.50;;;9.71;100.00
60373;BME280;46216;52.220;5.134;2023-02-03T01:51:30;102599.69;;;9.75;100.00
60373;BME280;46216;52.220;5.134;2023-02-03T01:53:55;102581.44;;;9.65;100.00
60373;BME280;46216;52.220;5.134;2023-02-03T01:56:23;102581.13;;;9.73;100.00
60373;BME280;46216;52.220;5.134;2023-02-03T01:58:51;102564.03;;;9.79;100.00
60373;BME280;46216;52.220;5.134;2023-02-03T02:01:17;102564.03;;;9.79;100.00
60373;BME280;46216;52.220;5.134;2023-02-03T02:03:47;102532.25;;;9.74;100.00
60373;BME280;46216;52.220;5.134;2023-02-03T02:06:14;102542.66;;;9.80;100.00
60373;BME280;46216;52.220;5.134;2023-02-03T02:08:42;102550.66;;;9.80;100.00
60373;BME280;46216;52.220;5.134;2023-02-03T02:11:08;102533.59;;;9.84;100.00
60373;BME280;46216;52.220;5.134;2023-02-03T02:13:34;102538.81;;;9.87;100.00
60373;BME280;46216;52.220;5.134;2023-02-03T02:26:48;102548.47;;;9.90;100.00
60373;BME280;46216;52.220;5.134;2023-02-03T02:31:59;102543.88;;;9.93;100.00
60373;BME280;46216;52.220;5.134;2023-02-03T02:39:54;102538.66;;;9.90;100.00
60373;BME280;46216;52.220;5.134;2023-02-03T02:42:35;102554.53;;;9.93;100.00
60373;BME280;46216;52.220;5.134;2023-02-03T02:45:14;102547.47;;;9.92;100.00
60373;BME280;46216;52.220;5.134;2023-02-03T02:47:42;102527.75;;;9.97;100.00
60373;BME280;46216;52.220;5.134;2023-02-03T02:50:23;102539.66;;;9.88;100.00
60373;BME280;46216;52.220;5.134;2023-02-03T02:52:51;102525.91;;;9.99;100.00
60373;BME280;46216;52.220;5.134;2023-02-03T02:55:23;102540.25;;;9.94;100.00
60373;BME280;46216;52.220;5.134;2023-02-03T02:57:56;102524.16;;;9.98;100.00
60373;BME280;46216;52.220;5.134;2023-02-03T03:00:29;102521.44;;;9.99;100.00
60373;BME280;46216;52.220;5.134;2023-02-03T03:02:55;102533.09;;;9.97;100.00
60373;BME280;46216;52.220;5.134;2023-02-03T03:05:21;102537.56;;;9.96;100.00
60373;BME280;46216;52.220;5.134;2023-02-03T03:07:55;102540.13;;;9.98;100.00
60373;BME280;46216;52.220;5.134;2023-02-03T03:10:23;102526.03;;;9.95;100.00
60373;BME280;46216;52.220;5.134;2023-02-03T03:12:57;102542.03;;;9.95;100.00
60373;BME280;46216;52.220;5.134;2023-02-03T03:15:26;102532.22;;;9.96;100.00
60373;BME280;46216;52.220;5.134;2023-02-03T03:18:13;102527.75;;;9.97;100.00
60373;BME280;46216;52.220;5.134;2023-02-03T03:20:42;102542.06;;;9.94;100.00
60373;BME280;46216;52.220;5.134;2023-02-03T03:23:17;102536.56;;;9.99;100.00
60373;BME280;46216;52.220;5.134;2023-02-03T03:25:52;102542.03;;;9.95;100.00
60373;BME280;46216;52.220;5.134;2023-02-03T03:28:41;102541.13;;;9.95;100.00
60373;BME280;46216;52.220;5.134;2023-02-03T03:31:09;102544.59;;;9.97;100.00
60373;BME280;46216;52.220;5.134;2023-02-03T03:33:34;102547.34;;;9.95;100.00
60373;BME280;46216;52.220;5.134;2023-02-03T03:38:56;102552.81;;;9.92;100.00
60373;BME280;46216;52.220;5.134;2023-02-03T03:41:38;102540.25;;;9.94;100.00
60373;BME280;46216;52.220;5.134;2023-02-03T03:44:12;102542.03;;;9.95;100.00
60373;BME280;46216;52.220;5.134;2023-02-03T03:46:49;102551.66;;;9.98;100.00
60373;BME280;46216;52.220;5.134;2023-02-03T03:49:16;102532.47;;;9.90;100.00
60373;BME280;46216;52.220;5.134;2023-02-03T03:51:48;102551.03;;;9.91;100.00
60373;BME280;46216;52.220;5.134;2023-02-03T03:54:17;102562.25;;;10.00;100.00
60373;BME280;46216;52.220;5.134;2023-02-03T03:56:58;102559.97;;;9.90;100.00
60373;BME280;46216;52.220;5.134;2023-02-03T03:59:29;102549.06;;;9.97;100.00
60373;BME280;46216;52.220;5.134;2023-02-03T04:01:56;102570.50;;;9.93;100.00
60373;BME280;46216;52.220;5.134;2023-02-03T04:04:23;102551.66;;;9.98;100.00
60373;BME280;46216;52.220;5.134;2023-02-03T04:06:52;102569.31;;;10.01;100.00
60373;BME280;46216;52.220;5.134;2023-02-03T04:09:17;102549.00;;;9.98;100.00
60373;BME280;46216;52.220;5.134;2023-02-03T04:11:43;102553.44;;;9.98;100.00
60373;BME280;46216;52.220;5.134;2023-02-03T04:14:30;102550.75;;;9.99;100.00
60373;BME280;46216;52.220;5.134;2023-02-03T04:16:57;102559.59;;;10.00;100.00
60373;BME280;46216;52.220;5.134;2023-02-03T04:19:23;102559.47;;;10.03;100.00
60373;BME280;46216;52.220;5.134;2023-02-03T04:21:48;102554.91;;;10.05;100.00
60373;BME280;46216;52.220;5.134;2023-02-03T04:24:14;102546.31;;;9.98;100.00
60373;BME280;46216;52.220;5.134;2023-02-03T04:26:39;102549.94;;;9.97;100.00
60373;BME280;46216;52.220;5.134;2023-02-03T04:29:04;102557.88;;;9.99;100.00
60373;BME280;46216;52.220;5.134;2023-02-03T04:31:30;102548.94;;;10.00;100.00
60373;BME280;46216;52.220;5.134;2023-02-03T04:33:55;102548.00;;;10.01;100.00
60373;BME280;46216;52.220;5.134;2023-02-03T04:36:20;102537.47;;;9.98;100.00
60373;BME280;46216;52.220;5.134;2023-02-03T04:38:47;102569.53;;;9.96;100.00
60373;BME280;46216;52.220;5.134;2023-02-03T04:41:13;102551.47;;;10.03;100.00
60373;BME280;46216;52.220;5.134;2023-02-03T04:43:38;102557.59;;;10.05;100.00
60373;BME280;46216;52.220;5.134;2023-02-03T04:46:04;102531.97;;;10.02;100.00
60373;BME280;46216;52.220;5.134;2023-02-03T04:48:29;102531.41;;;9.94;100.00
60373;BME280;46216;52.220;5.134;2023-02-03T04:50:54;102552.34;;;10.03;100.00
60373;BME280;46216;52.220;5.134;2023-02-03T04:53:20;102537.44;;;9.99;100.00
60373;BME280;46216;52.220;5.134;2023-02-03T04:55:46;102533.09;;;9.97;100.00
60373;BME280;46216;52.220;5.134;2023-02-03T04:58:12;102543.63;;;10.00;100.00
60373;BME280;46216;52.220;5.134;2023-02-03T05:00:37;102541.94;;;9.97;100.00
60373;BME280;46216;52.220;5.134;2023-02-03T05:03:03;102536.69;;;9.95;100.00
60373;BME280;46216;52.220;5.134;2023-02-03T05:05:28;102527.88;;;9.93;100.00
60373;BME280;46216;52.220;5.134;2023-02-03T05:07:53;102531.41;;;9.94;100.00
60373;BME280;46216;52.220;5.134;2023-02-03T05:10:19;102550.91;;;9.94;100.00
60373;BME280;46216;52.220;5.134;2023-02-03T05:12:44;102538.34;;;9.98;100.00
60373;BME280;46216;52.220;5.134;2023-02-03T05:15:09;102545.47;;;9.98;100.00
60373;BME280;46216;52.220;5.134;2023-02-03T05:17:35;102550.78;;;9.98;100.00
60373;BME280;46216;52.220;5.134;2023-02-03T05:20:03;102543.63;;;10.00;100.00
60373;BME280;46216;52.220;5.134;2023-02-03T05:22:29;102542.03;;;9.95;100.00
60373;BME280;46216;52.220;5.134;2023-02-03T05:24:54;102534.22;;;9.91;100.00
60373;BME280;46216;52.220;5.134;2023-02-03T05:27:19;102548.38;;;9.91;100.00
60373;BME280;46216;52.220;5.134;2023-02-03T05:29:45;102544.13;;;9.87;100.00
60373;BME280;46216;52.220;5.134;2023-02-03T05:32:10;102539.47;;;9.92;100.00
60373;BME280;46216;52.220;5.134;2023-02-03T05:34:35;102548.47;;;9.90;100.00
60373;BME280;46216;52.220;5.134;2023-02-03T05:37:00;102543.38;;;9.84;100.00
60373;BME280;46216;52.220;5.134;2023-02-03T05:39:28;102533.59;;;9.84;100.00
60373;BME280;46216;52.220;5.134;2023-02-03T05:41:53;102547.03;;;9.81;100.00
60373;BME280;46216;52.220;5.134;2023-02-03T05:44:26;102563.09;;;9.80;100.00
60373;BME280;46216;52.220;5.134;2023-02-03T05:46:53;102561.16;;;9.83;100.00
60373;BME280;46216;52.220;5.134;2023-02-03T05:49:19;102552.38;;;9.81;100.00
60373;BME280;46216;52.220;5.134;2023-02-03T05:51:45;102565.56;;;9.84;100.00
60373;BME280;46216;52.220;5.134;2023-02-03T05:54:11;102562.13;;;9.82;100.00
60373;BME280;46216;52.220;5.134;2023-02-03T05:56:37;102572.81;;;9.81;100.00
60373;BME280;46216;52.220;5.134;2023-02-03T05:59:03;102563.97;;;9.80;100.00
60373;BME280;46216;52.220;5.134;2023-02-03T06:01:28;102560.47;;;9.78;100.00
60373;BME280;46216;52.220;5.134;2023-02-03T06:03:53;102544.38;;;9.81;100.00
60373;BME280;46216;52.220;5.134;2023-02-03T06:06:19;102558.75;;;9.77;100.00
60373;BME280;46216;52.220;5.134;2023-02-03T06:08:44;102575.59;;;9.78;100.00
60373;BME280;46216;52.220;5.134;2023-02-03T06:11:10;102563.31;;;9.75;100.00
60373;BME280;46216;52.220;5.134;2023-02-03T06:13:36;102580.06;;;9.77;100.00
60373;BME280;46216;52.220;5.134;2023-02-03T06:16:01;102583.72;;;9.75;100.00
60373;BME280;46216;52.220;5.134;2023-02-03T06:18:27;102581.19;;;9.71;100.00
60373;BME280;46216;52.220;5.134;2023-02-03T06:20:52;102583.66;;;9.76;100.00
60373;BME280;46216;52.220;5.134;2023-02-03T06:23:17;102594.31;;;9.76;100.00
60373;BME280;46216;52.220;5.134;2023-02-03T06:25:46;102586.38;;;9.75;100.00
60373;BME280;46216;52.220;5.134;2023-02-03T06:28:12;102595.91;;;9.80;100.00
60373;BME280;46216;52.220;5.134;2023-02-03T06:30:37;102596.97;;;9.76;100.00
60373;BME280;46216;52.220;5.134;2023-02-03T06:33:03;102597.63;;;9.81;100.00
60373;BME280;46216;52.220;5.134;2023-02-03T06:35:28;102581.78;;;9.78;100.00
60373;BME280;46216;52.220;5.134;2023-02-03T06:37:54;102586.38;;;9.75;100.00
60373;BME280;46216;52.220;5.134;2023-02-03T06:40:19;102589.00;;;9.76;100.00
60373;BME280;46216;52.220;5.134;2023-02-03T06:42:45;102596.16;;;9.74;100.00
60373;BME280;46216;52.220;5.134;2023-02-03T06:45:11;102599.16;;;9.66;100.00
60373;BME280;46216;52.220;5.134;2023-02-03T06:47:41;102601.00;;;9.64;100.00
60373;BME280;46216;52.220;5.134;2023-02-03T06:50:07;102604.53;;;9.65;100.00
60373;BME280;46216;52.220;5.134;2023-02-03T06:52:33;102608.81;;;9.69;100.00
60373;BME280;46216;52.220;5.134;2023-02-03T06:54:58;102608.97;;;9.64;100.00
60373;BME280;46216;52.220;5.134;2023-02-03T06:57:23;102604.47;;;9.66;100.00
60373;BME280;46216;52.220;5.134;2023-02-03T06:59:49;102614.38;;;9.63;100.00
60373;BME280;46216;52.220;5.134;2023-02-03T07:02:14;102633.94;;;9.62;100.00
60373;BME280;46216;52.220;5.134;2023-02-03T07:04:40;102613.41;;;9.65;100.00
60373;BME280;46216;52.220;5.134;2023-02-03T07:07:05;102629.38;;;9.65;100.00
60373;BME280;46216;52.220;5.134;2023-02-03T07:09:51;102616.91;;;9.66;100.00
60373;BME280;46216;52.220;5.134;2023-02-03T07:12:17;102620.69;;;9.60;100.00
60373;BME280;46216;52.220;5.134;2023-02-03T07:14:42;102628.63;;;9.62;100.00
60373;BME280;46216;52.220;5.134;2023-02-03T07:17:07;102629.59;;;9.59;100.00
60373;BME280;46216;52.220;5.134;2023-02-03T07:19:33;102633.38;;;9.54;100.00
60373;BME280;46216;52.220;5.134;2023-02-03T07:21:59;102628.63;;;9.62;100.00
60373;BME280;46216;52.220;5.134;2023-02-03T07:24:24;102637.50;;;9.61;100.00
60373;BME280;46216;52.220;5.134;2023-02-03T07:26:50;102621.53;;;9.61;100.00
60373;BME280;46216;52.220;5.134;2023-02-03T07:29:15;102633.09;;;9.61;100.00
60373;BME280;46216;52.220;5.134;2023-02-03T07:31:40;102633.84;;;9.65;100.00
60373;BME280;46216;52.220;5.134;2023-02-03T07:34:06;102618.72;;;9.65;100.00
60373;BME280;46216;52.220;5.134;2023-02-03T07:36:32;102616.22;;;9.61;100.00
60373;BME280;46216;52.220;5.134;2023-02-03T07:38:58;102631.28;;;9.62;100.00
60373;BME280;46216;52.220;5.134;2023-02-03T07:41:24;102627.56;;;9.66;100.00
60373;BME280;46216;52.220;5.134;2023-02-03T07:43:49;102626.63;;;9.67;100.00
60373;BME280;46216;52.220;5.134;2023-02-03T07:46:15;102647.00;;;9.68;100.00
60373;BME280;46216;52.220;5.134;2023-02-03T07:48:41;102640.88;;;9.66;100.00
60373;BME280;46216;52.220;5.134;2023-02-03T07:51:07;102651.28;;;9.72;100.00
60373;BME280;46216;52.220;5.134;2023-02-03T07:53:32;102648.78;;;9.67;100.00
60373;BME280;46216;52.220;5.134;2023-02-03T07:56:01;102649.41;;;9.74;100.00
60373;BME280;46216;52.220;5.134;2023-02-03T07:58:27;102648.78;;;9.67;100.00
60373;BME280;46216;52.220;5.134;2023-02-03T08:00:52;102646.94;;;9.69;100.00
60373;BME280;46216;52.220;5.134;2023-02-03T08:03:17;102657.41;;;9.74;100.00
60373;BME280;46216;52.220;5.134;2023-02-03T08:05:43;102648.63;;;9.72;100.00
60373;BME280;46216;52.220;5.134;2023-02-03T08:08:08;102665.50;;;9.71;100.00
60373;BME280;46216;52.220;5.134;2023-02-03T08:10:33;102672.31;;;9.78;100.00
60373;BME280;46216;52.220;5.134;2023-02-03T08:12:59;102673.25;;;9.77;100.00
60373;BME280;46216;52.220;5.134;2023-02-03T08:15:24;102684.72;;;9.79;100.00
60373;BME280;46216;52.220;5.134;2023-02-03T08:17:51;102691.66;;;9.83;100.00
60373;BME280;46216;52.220;5.134;2023-02-03T08:20:16;102686.56;;;9.77;100.00
60373;BME280;46216;52.220;5.134;2023-02-03T08:22:42;102702.44;;;9.80;100.00
60373;BME280;46216;52.220;5.134;2023-02-03T08:25:07;102691.78;;;9.80;100.00
60373;BME280;46216;52.220;5.134;2023-02-03T08:27:33;102698.81;;;9.81;100.00
60373;BME280;46216;52.220;5.134;2023-02-03T08:29:59;102706.16;;;9.76;100.00
60373;BME280;46216;52.220;5.134;2023-02-03T08:32:24;102711.34;;;9.79;100.00
60373;BME280;46216;52.220;5.134;2023-02-03T08:34:51;102697.81;;;9.85;100.00
60373;BME280;46216;52.220;5.134;2023-02-03T08:37:19;102702.19;;;9.86;100.00
60373;BME280;46216;52.220;5.134;2023-02-03T08:39:45;102694.19;;;9.86;100.00
60373;BME280;46216;52.220;5.134;2023-02-03T08:42:11;102709.31;;;9.86;100.00
60373;BME280;46216;52.220;5.134;2023-02-03T08:44:36;102713.66;;;9.88;100.00
60373;BME280;46216;52.220;5.134;2023-02-03T08:47:05;102703.88;;;9.89;100.00
60373;BME280;46216;52.220;5.134;2023-02-03T08:49:31;102707.31;;;9.91;100.00
60373;BME280;46216;52.220;5.134;2023-02-03T08:51:58;102712.47;;;9.95;100.00
60373;BME280;46216;52.220;5.134;2023-02-03T08:54:25;102705.72;;;9.87;100.00
60373;BME280;46216;52.220;5.134;2023-02-03T08:56:50;102710.06;;;9.89;100.00
60373;BME280;46216;52.220;5.134;2023-02-03T08:59:16;102715.94;;;9.98;100.00
60373;BME280;46216;52.220;5.134;2023-02-03T09:01:42;102716.88;;;9.97;100.00
60373;BME280;46216;52.220;5.134;2023-02-03T09:04:13;102706.03;;;10.01;100.00
60373;BME280;46216;52.220;5.134;2023-02-03T09:06:39;102732.78;;;9.98;100.00
60373;BME280;46216;52.220;5.134;2023-02-03T09:09:04;102721.88;;;10.04;100.00
60373;BME280;46216;52.220;5.134;2023-02-03T09:11:30;102723.63;;;10.05;100.00
60373;BME280;46216;52.220;5.134;2023-02-03T09:13:56;102732.19;;;10.13;100.00
60373;BME280;46216;52.220;5.134;2023-02-03T09:16:22;102729.44;;;10.15;100.00
60373;BME280;46216;52.220;5.134;2023-02-03T09:18:48;102733.91;;;10.14;100.00
60373;BME280;46216;52.220;5.134;2023-02-03T09:21:15;102732.31;;;10.10;100.00
60373;BME280;46216;52.220;5.134;2023-02-03T09:23:42;102745.53;;;10.12;100.00
60373;BME280;46216;52.220;5.134;2023-02-03T09:26:09;102724.13;;;10.15;100.00
60373;BME280;46216;52.220;5.134;2023-02-03T09:28:35;102725.88;;;10.16;100.00
60373;BME280;46216;52.220;5.134;2023-02-03T09:31:01;102739.13;;;10.17;100.00
60373;BME280;46216;52.220;5.134;2023-02-03T09:33:28;102733.91;;;10.14;100.00
60373;BME280;46216;52.220;5.134;2023-02-03T09:35:55;102724.69;;;10.23;100.00
60373;BME280;46216;52.220;5.134;2023-02-03T09:38:24;102747.19;;;10.16;100.00
60373;BME280;46216;52.220;5.134;2023-02-03T09:40:53;102748.78;;;10.20;100.00
60373;BME280;46216;52.220;5.134;2023-02-03T09:43:42;102741.97;;;10.13;100.00
60373;BME280;46216;52.220;5.134;2023-02-03T09:46:25;102746.91;;;10.22;100.00
60373;BME280;46216;52.220;5.134;2023-02-03T09:49:23;102753.06;;;10.24;100.00
60373;BME280;46216;52.220;5.134;2023-02-03T09:51:57;102752.19;;;10.24;100.00
60373;BME280;46216;52.220;5.134;2023-02-03T09:57:21;102754.78;;;10.25;100.00
60373;BME280;46216;52.220;5.134;2023-02-03T09:59:48;102756.28;;;10.32;100.00
60373;BME280;46216;52.220;5.134;2023-02-03T10:02:23;102760.03;;;10.28;100.00
60373;BME280;46216;52.220;5.134;2023-02-03T10:05:10;102765.34;;;10.28;100.00
60373;BME280;46216;52.220;5.134;2023-02-03T10:08:14;102754.53;;;10.33;100.00
60373;BME280;46216;52.220;5.134;2023-02-03T10:14:32;102768.75;;;10.32;100.00
60373;BME280;46216;52.220;5.134;2023-02-03T10:22:26;102773.03;;;10.36;100.00
60373;BME280;46216;52.220;5.134;2023-02-03T10:24:59;102764.78;;;10.42;100.00
60373;BME280;46216;52.220;5.134;2023-02-03T10:27:27;102771.88;;;10.43;100.00
60373;BME280;46216;52.220;5.134;2023-02-03T10:30:04;102762.31;;;10.37;100.00
60373;BME280;46216;52.220;5.134;2023-02-03T10:32:30;102776.59;;;10.36;100.00
60373;BME280;46216;52.220;5.134;2023-02-03T10:34:56;102782.91;;;10.34;100.00
60373;BME280;46216;52.220;5.134;2023-02-03T10:37:28;102780.16;;;10.35;100.00
60373;BME280;46216;52.220;5.134;2023-02-03T10:39:54;102795.13;;;10.39;100.00
60373;BME280;46216;52.220;5.134;2023-02-03T10:42:22;102798.56;;;10.41;100.00
60373;BME280;46216;52.220;5.134;2023-02-03T10:44:51;102804.59;;;10.47;100.00
60373;BME280;46216;52.220;5.134;2023-02-03T10:47:37;102802.50;;;10.33;100.00
60373;BME280;46216;52.220;5.134;2023-02-03T10:50:15;102794.06;;;10.44;100.00
60373;BME280;46216;52.220;5.134;2023-02-03T10:52:41;102806.44;;;10.45;100.00
60373;BME280;46216;52.220;5.134;2023-02-03T10:57:51;102791.16;;;10.50;100.00
60373;BME280;46216;52.220;5.134;2023-02-03T11:02:43;102803.22;;;10.58;100.00
60373;BME280;46216;52.220;5.134;2023-02-03T11:05:21;102801.63;;;10.54;100.00
60373;BME280;46216;52.220;5.134;2023-02-03T11:07:49;102806.75;;;10.59;100.00
60373;BME280;46216;52.220;5.134;2023-02-03T11:10:34;102817.41;;;10.59;100.00
60373;BME280;46216;52.220;5.134;2023-02-03T11:15:36;102804.09;;;10.59;100.00
60373;BME280;46216;52.220;5.134;2023-02-03T11:18:02;102802.97;;;10.64;100.00
60373;BME280;46216;52.220;5.134;2023-02-03T11:20:28;102808.19;;;10.68;100.00
60373;BME280;46216;52.220;5.134;2023-02-03T11:22:54;102801.25;;;10.63;100.00
60373;BME280;46216;52.220;5.134;2023-02-03T11:25:24;102811.22;;;10.58;100.00
60373;BME280;46216;52.220;5.134;2023-02-03T11:27:53;102804.66;;;10.67;100.00
60373;BME280;46216;52.220;5.134;2023-02-03T11:30:25;102809.84;;;10.70;100.00
60373;BME280;46216;52.220;5.134;2023-02-03T11:32:52;102811.47;;;10.74;100.00
60373;BME280;46216;52.220;5.134;2023-02-03T11:35:20;102807.66;;;10.80;100.00
60373;BME280;46216;52.220;5.134;2023-02-03T11:37:48;102798.50;;;10.65;100.00
60373;BME280;46216;52.220;5.134;2023-02-03T11:42:41;102804.78;;;10.64;100.00
60373;BME280;46216;52.220;5.134;2023-02-03T11:45:14;102808.19;;;10.68;100.00
60373;BME280;46216;52.220;5.134;2023-02-03T11:47:47;102803.19;;;10.60;100.00
60373;BME280;46216;52.220;5.134;2023-02-03T11:50:26;102785.13;;;10.67;100.00
60373;BME280;46216;52.220;5.134;2023-02-03T12:01:20;102801.13;;;10.67;100.00
60373;BME280;46216;52.220;5.134;2023-02-03T12:04:15;102798.75;;;10.59;100.00
60373;BME280;46216;52.220;5.134;2023-02-03T12:07:02;102802.22;;;10.61;100.00
60373;BME280;46216;52.220;5.134;2023-02-03T12:15:00;102821.22;;;10.53;100.00
60373;BME280;46216;52.220;5.134;2023-02-03T12:28:42;102839.63;;;10.14;100.00
60373;BME280;46216;52.220;5.134;2023-02-03T12:34:03;102862.09;;;10.07;100.00
60373;BME280;46216;52.220;5.134;2023-02-03T12:37:05;102858.72;;;10.02;100.00
60373;BME280;46216;52.220;5.134;2023-02-03T12:39:37;102856.97;;;10.02;100.00
60373;BME280;46216;52.220;5.134;2023-02-03T12:42:19;102867.31;;;10.10;100.00
60373;BME280;46216;52.220;5.134;2023-02-03T12:45:12;102870.09;;;10.07;100.00
60373;BME280;46216;52.220;5.134;2023-02-03T12:50:16;102875.44;;;10.07;100.00
60373;BME280;46216;52.220;5.134;2023-02-03T12:52:53;102870.91;;;10.09;100.00
60373;BME280;46216;52.220;5.134;2023-02-03T12:55:26;102872.97;;;10.01;100.00
60373;BME280;46216;52.220;5.134;2023-02-03T12:58:05;102883.31;;;10.10;100.00
60373;BME280;46216;52.220;5.134;2023-02-03T13:00:39;102886.94;;;10.07;100.00
60373;BME280;46216;52.220;5.134;2023-02-03T13:03:21;102896.63;;;10.10;100.00
60373;BME280;46216;52.220;5.134;2023-02-03T13:05:55;102894.75;;;10.12;100.00
60373;BME280;46216;52.220;5.134;2023-02-03T13:08:31;102897.91;;;10.23;100.00
60373;BME280;46216;52.220;5.134;2023-02-03T13:13:33;102894.28;;;10.24;100.00
60373;BME280;46216;52.220;5.134;2023-02-03T13:16:01;102901.72;;;10.16;100.00
60373;BME280;46216;52.220;5.134;2023-02-03T13:20:57;102894.28;;;10.24;100.00
60373;BME280;46216;52.220;5.134;2023-02-03T13:23:23;102896.41;;;10.16;100.00
60373;BME280;46216;52.220;5.134;2023-02-03T13:29:06;102903.22;;;10.23;100.00
60373;BME280;46216;52.220;5.134;2023-02-03T13:40:12;102897.03;;;10.23;100.00
60373;BME280;46216;52.220;5.134;2023-02-03T13:42:44;102894.09;;;10.30;100.00
60373;BME280;46216;52.220;5.134;2023-02-03T13:45:21;102897.81;;;10.26;100.00
60373;BME280;46216;52.220;5.134;2023-02-03T13:47:52;102888.16;;;10.22;100.00
60373;BME280;46216;52.220;5.134;2023-02-03T13:50:24;102892.38;;;10.29;100.00
60373;BME280;46216;52.220;5.134;2023-02-03T13:53:05;102895.94;;;10.28;100.00
60373;BME280;46216;52.220;5.134;2023-02-03T13:55:36;102884.63;;;10.22;100.00
60373;BME280;46216;52.220;5.134;2023-02-03T13:58:04;102888.28;;;10.19;100.00
60373;BME280;46216;52.220;5.134;2023-02-03T14:03:17;102884.38;;;10.29;100.00
60373;BME280;46216;52.220;5.134;2023-02-03T14:05:45;102885.28;;;10.28;100.00
60373;BME280;46216;52.220;5.134;2023-02-03T14:13:52;102901.34;;;10.27;100.00
60373;BME280;46216;52.220;5.134;2023-02-03T14:16:23;102899.53;;;10.27;100.00
60373;BME280;46216;52.220;5.134;2023-02-03T14:18:49;102904.41;;;10.16;100.00
60373;BME280;46216;52.220;5.134;2023-02-03T14:21:22;102901.47;;;10.22;100.00
60373;BME280;46216;52.220;5.134;2023-02-03T14:23:56;102913.19;;;10.18;100.00
60373;BME280;46216;52.220;5.134;2023-02-03T14:26:30;102917.53;;;10.21;100.00
60373;BME280;46216;52.220;5.134;2023-02-03T14:28:57;102922.09;;;10.17;100.00
60373;BME280;46216;52.220;5.134;2023-02-03T14:31:24;102915.84;;;10.18;100.00
60373;BME280;46216;52.220;5.134;2023-02-03T14:33:56;102923.78;;;10.19;100.00